createdAt,value
2022-10-28T00:02:35.630Z,98961.47
2022-10-28T00:05:37.042Z,98961.47
2022-10-28T00:08:38.447Z,98964.06
2022-10-28T00:11:39.854Z,98953.63
2022-10-28T00:14:41.216Z,98953.59
2022-10-28T00:17:42.549Z,98961.44
2022-10-28T00:20:43.872Z,98957.97
2022-10-28T00:23:45.236Z,98952.75
2022-10-28T00:26:46.695Z,98957.09
2022-10-28T00:29:48.029Z,98957.09
2022-10-28T00:32:49.369Z,98957.97
2022-10-28T00:35:50.700Z,98948.38
2022-10-28T00:38:52.493Z,98953.66
2022-10-28T00:41:55.191Z,98949.28
2022-10-28T00:45:00.212Z,98946.69
2022-10-28T00:48:02.246Z,98943.19
2022-10-28T00:51:03.612Z,98943.19
2022-10-28T00:54:05.021Z,98948.38
2022-10-28T00:57:08.310Z,98951.00
2022-10-28T01:00:09.910Z,98943.16
2022-10-28T01:03:11.313Z,98938.81
2022-10-28T01:06:12.705Z,98937.91
2022-10-28T01:09:14.072Z,98938.81
2022-10-28T01:12:18.465Z,98937.94
2022-10-28T01:15:19.778Z,98940.56
2022-10-28T01:18:40.019Z,98940.56
2022-10-28T01:21:43.701Z,98933.56
2022-10-28T01:25:03.791Z,98932.72
2022-10-28T01:28:13.414Z,98928.34
2022-10-28T01:31:14.888Z,98924.88
2022-10-28T01:34:19.077Z,98924.84
2022-10-28T01:37:31.948Z,98922.25
2022-10-28T01:40:45.106Z,98919.66
2022-10-28T01:43:48.174Z,98923.16
2022-10-28T01:46:52.486Z,98921.41
2022-10-28T01:50:06.095Z,98914.47
2022-10-28T01:53:08.077Z,98916.19
2022-10-28T01:56:13.817Z,98907.50
2022-10-28T01:59:17.186Z,98915.34
2022-10-28T02:02:18.706Z,98908.38
2022-10-28T02:05:39.397Z,98905.75
2022-10-28T02:08:40.745Z,98897.06
2022-10-28T02:11:57.786Z,98897.97
2022-10-28T02:15:17.673Z,98904.91
2022-10-28T02:18:18.930Z,98899.69
2022-10-28T02:21:21.678Z,98893.59
2022-10-28T02:24:24.090Z,98888.34
2022-10-28T02:27:28.439Z,98888.38
2022-10-28T02:30:38.856Z,98888.38
2022-10-28T02:33:40.220Z,98881.38
2022-10-28T02:36:42.323Z,98885.75
2022-10-28T02:39:45.432Z,98884.88
2022-10-28T02:42:50.683Z,98886.59
2022-10-28T02:45:53.141Z,98886.59
2022-10-28T02:48:55.088Z,98891.00
2022-10-28T02:51:57.995Z,98884.88
2022-10-28T02:54:59.967Z,98886.63
2022-10-28T02:58:01.289Z,98886.59
2022-10-28T03:01:02.719Z,98883.13
2022-10-28T03:04:05.039Z,98880.50
2022-10-28T03:07:06.413Z,98885.72
2022-10-28T03:10:07.974Z,98881.34
2022-10-28T03:13:09.354Z,98877.84
2022-10-28T03:16:10.718Z,98877.84
2022-10-28T03:19:12.069Z,98870.88
2022-10-28T03:22:13.412Z,98869.13
2022-10-28T03:25:14.797Z,98865.63
2022-10-28T03:28:16.117Z,98863.88
2022-10-28T03:31:17.542Z,98856.91
2022-10-28T03:34:18.853Z,98866.47
2022-10-28T03:37:20.231Z,98853.38
2022-10-28T03:40:21.643Z,98862.09
2022-10-28T03:43:23.015Z,98849.91
2022-10-28T03:46:24.368Z,98851.63
2022-10-28T03:49:25.704Z,98842.94
2022-10-28T03:52:27.090Z,98841.19
2022-10-28T03:55:28.456Z,98835.09
2022-10-28T03:58:29.871Z,98839.47
2022-10-28T04:01:31.425Z,98842.09
2022-10-28T04:04:32.821Z,98842.94
2022-10-28T04:07:34.706Z,98836.84
2022-10-28T04:10:36.133Z,98835.97
2022-10-28T04:13:37.485Z,98837.69
2022-10-28T04:16:38.859Z,98838.59
2022-10-28T04:19:40.253Z,98839.47
2022-10-28T04:22:41.632Z,98827.22
2022-10-28T04:25:43.165Z,98833.34
2022-10-28T04:28:44.554Z,98832.47
2022-10-28T04:31:48.662Z,98824.59
2022-10-28T04:34:52.797Z,98822.84
2022-10-28T04:37:54.438Z,98822.84
2022-10-28T04:40:56.017Z,98828.09
2022-10-28T04:43:57.440Z,98828.09
2022-10-28T04:46:58.793Z,98818.50
2022-10-28T04:50:00.118Z,98818.47
2022-10-28T04:53:01.552Z,98825.47
2022-10-28T04:56:02.885Z,98833.31
2022-10-28T04:59:04.203Z,98828.97
2022-10-28T05:02:05.645Z,98832.47
2022-10-28T05:05:07.304Z,98822.00
2022-10-28T05:08:08.732Z,98814.13
2022-10-28T05:11:10.085Z,98825.47
2022-10-28T05:14:11.424Z,98818.50
2022-10-28T05:17:12.742Z,98807.13
2022-10-28T05:20:14.766Z,98794.91
2022-10-28T05:23:16.115Z,98791.38
2022-10-28T05:26:17.464Z,98788.78
2022-10-28T05:29:19.623Z,98780.94
2022-10-28T05:32:20.948Z,98783.53
2022-10-28T05:35:22.361Z,98787.88
2022-10-28T05:38:23.700Z,98783.50
2022-10-28T05:41:25.071Z,98790.47
2022-10-28T05:44:26.436Z,98799.19
2022-10-28T05:47:27.815Z,98800.06
2022-10-28T05:50:29.206Z,98801.78
2022-10-28T05:53:30.540Z,98807.88
2022-10-28T05:56:31.883Z,98811.38
2022-10-28T05:59:33.248Z,98813.97
2022-10-28T06:02:34.740Z,98814.84
2022-10-28T06:05:39.968Z,98809.63
2022-10-28T06:08:41.333Z,98823.56
2022-10-28T06:11:41.123Z,98813.97
2022-10-28T06:14:42.462Z,98818.31
2022-10-28T06:17:45.736Z,98817.47
2022-10-28T06:20:53.552Z,98820.03
2022-10-28T06:23:54.894Z,98821.78
2022-10-28T06:26:56.221Z,98824.44
2022-10-28T06:29:57.596Z,98821.75
2022-10-28T06:32:58.937Z,98824.38
2022-10-28T06:36:00.301Z,98826.09
2022-10-28T06:39:01.691Z,98826.97
2022-10-28T06:42:03.220Z,98830.41
2022-10-28T06:45:04.969Z,98837.41
2022-10-28T06:48:07.867Z,98835.66
2022-10-28T06:51:09.227Z,98842.56
2022-10-28T06:54:10.586Z,98848.63
2022-10-28T06:57:11.898Z,98846.88
2022-10-28T07:00:13.580Z,98848.56
2022-10-28T07:03:14.912Z,98854.63
2022-10-28T07:06:16.576Z,98846.72
2022-10-28T07:09:17.993Z,98850.13
2022-10-28T07:12:19.355Z,98858.84
2022-10-28T07:15:20.743Z,98871.06
2022-10-28T07:18:22.137Z,98877.97
2022-10-28T07:21:28.403Z,98879.66
2022-10-28T07:24:29.841Z,98888.34
2022-10-28T07:27:31.180Z,98897.84
2022-10-28T07:30:32.573Z,98899.50
2022-10-28T07:33:34.001Z,98902.13
2022-10-28T07:36:35.369Z,98912.56
2022-10-28T07:42:38.022Z,98908.97
2022-10-28T07:45:39.464Z,98910.56
2022-10-28T07:48:40.904Z,98906.03
2022-10-28T07:51:42.227Z,98919.81
2022-10-28T07:54:43.799Z,98929.28
2022-10-28T07:57:45.151Z,98936.16
2022-10-28T08:00:46.571Z,98950.75
2022-10-28T08:03:47.907Z,98962.91
2022-10-28T08:06:49.278Z,98982.81
2022-10-28T08:09:51.955Z,98998.09
2022-10-28T08:12:55.531Z,99016.50
2022-10-28T08:15:56.934Z,99038.47
2022-10-28T08:18:58.312Z,99048.13
2022-10-28T08:21:59.678Z,99043.78
2022-10-28T08:25:01.042Z,99055.16
2022-10-28T08:28:02.402Z,99057.69
2022-10-28T08:31:08.609Z,99069.84
2022-10-28T08:34:10.502Z,99064.59
2022-10-28T08:37:12.012Z,99073.34
2022-10-28T08:40:13.384Z,99064.69
2022-10-28T08:43:20.747Z,99072.44
2022-10-28T08:46:30.975Z,99077.53
2022-10-28T08:49:32.689Z,99080.84
2022-10-28T08:52:35.378Z,99075.47
2022-10-28T08:55:38.548Z,99074.34
2022-10-28T08:58:40.021Z,99085.28
2022-10-28T09:01:42.714Z,99103.09
2022-10-28T09:04:44.638Z,99135.44
2022-10-28T09:07:45.964Z,99141.19
2022-10-28T09:10:53.348Z,99141.53
2022-10-28T09:14:06.125Z,99138.94
2022-10-28T09:17:10.419Z,99137.25
2022-10-28T09:20:18.937Z,99143.44
2022-10-28T09:23:26.307Z,99157.25
2022-10-28T09:26:43.957Z,99147.56
2022-10-28T09:29:57.588Z,99145.59
2022-10-28T09:33:08.846Z,99144.19
2022-10-28T09:36:13.375Z,99158.69
2022-10-28T09:39:27.683Z,99161.47
2022-10-28T09:42:29.951Z,99157.50
2022-10-28T09:45:32.274Z,99154.91
2022-10-28T09:48:55.697Z,99170.06
2022-10-28T09:52:11.775Z,99169.41
2022-10-28T09:55:16.392Z,99169.84
2022-10-28T09:58:17.702Z,99162.28
2022-10-28T10:01:19.135Z,99173.03
2022-10-28T10:04:23.971Z,99164.81
2022-10-28T10:07:35.501Z,99157.41
2022-10-28T10:10:47.569Z,99157.88
2022-10-28T10:13:48.933Z,99157.19
2022-10-28T10:17:03.243Z,99169.13
2022-10-28T10:20:09.364Z,99165.78
2022-10-28T10:23:21.429Z,99167.31
2022-10-28T10:26:22.813Z,99174.00
2022-10-28T10:29:24.160Z,99167.84
2022-10-28T10:32:26.210Z,99166.78
2022-10-28T10:35:28.283Z,99143.16
2022-10-28T10:38:29.699Z,99140.38
2022-10-28T10:41:35.393Z,99146.91
2022-10-28T10:44:36.813Z,99153.50
2022-10-28T10:47:38.188Z,99152.66
2022-10-28T10:50:39.528Z,99149.34
2022-10-28T10:53:40.922Z,99139.09
2022-10-28T10:56:42.918Z,99132.38
2022-10-28T10:59:45.295Z,99136.81
2022-10-28T11:02:48.246Z,99131.38
2022-10-28T11:06:05.446Z,99131.44
2022-10-28T11:09:19.788Z,99142.22
2022-10-28T11:12:24.176Z,99136.28
2022-10-28T11:15:26.431Z,99133.75
2022-10-28T11:18:29.278Z,99123.56
2022-10-28T11:21:43.015Z,99124.16
2022-10-28T11:24:59.741Z,99125.31
2022-10-28T11:28:07.662Z,99121.66
2022-10-28T11:31:25.645Z,99108.41
2022-10-28T11:34:30.035Z,99099.09
2022-10-28T11:37:44.540Z,99106.81
2022-10-28T11:41:04.730Z,99105.16
2022-10-28T11:44:08.804Z,99098.59
2022-10-28T11:47:26.807Z,99106.50
2022-10-28T11:50:37.307Z,99090.81
2022-10-28T11:53:51.310Z,99105.78
2022-10-28T11:57:03.815Z,99103.34
2022-10-28T12:00:23.511Z,99107.78
2022-10-28T12:03:39.782Z,99110.78
2022-10-28T12:06:59.983Z,99086.31
2022-10-28T12:10:19.558Z,99093.41
2022-10-28T12:13:24.990Z,99104.94
2022-10-28T12:16:26.315Z,99101.72
2022-10-28T12:19:28.349Z,99080.19
2022-10-28T12:22:46.422Z,99077.19
2022-10-28T12:25:48.895Z,99100.28
2022-10-28T12:28:51.891Z,99088.03
2022-10-28T12:31:57.975Z,99090.78
2022-10-28T12:35:00.622Z,99085.00
2022-10-28T12:38:11.015Z,99080.09
2022-10-28T12:41:16.070Z,99069.56
2022-10-28T12:44:19.114Z,99038.84
2022-10-28T12:47:20.501Z,99041.03
2022-10-28T12:50:21.931Z,99043.97
2022-10-28T12:53:23.411Z,99048.47
2022-10-28T12:56:27.072Z,99035.91
2022-10-28T12:59:33.359Z,99058.28
2022-10-28T13:02:41.538Z,99033.81
2022-10-28T13:05:44.317Z,99035.69
2022-10-28T13:08:59.593Z,99038.47
2022-10-28T13:12:05.900Z,99042.81
2022-10-28T13:15:16.220Z,99050.72
2022-10-28T13:18:23.723Z,99078.34
2022-10-28T13:21:45.327Z,99054.28
2022-10-28T13:25:05.540Z,99040.69
2022-10-28T13:28:11.542Z,99068.88
2022-10-28T13:31:14.701Z,99070.50
2022-10-28T13:34:16.314Z,99074.13
2022-10-28T13:37:18.646Z,99081.13
2022-10-28T13:40:20.897Z,99086.91
2022-10-28T13:43:42.153Z,99083.22
2022-10-28T13:46:58.540Z,99087.72
2022-10-28T13:50:06.035Z,99083.97
2022-10-28T13:53:26.058Z,99091.63
2022-10-28T13:56:27.350Z,99084.66
2022-10-28T13:59:29.548Z,99085.31
2022-10-28T14:02:37.749Z,99091.75
2022-10-28T14:05:39.348Z,99083.91
2022-10-28T14:08:40.800Z,99089.69
2022-10-28T14:11:42.283Z,99092.59
2022-10-28T14:15:10.003Z,99099.84
2022-10-28T14:18:43.156Z,99099.50
2022-10-28T14:22:01.941Z,99097.59
2022-10-28T14:25:05.462Z,99099.09
2022-10-28T14:28:25.625Z,99091.88
2022-10-28T14:31:34.124Z,99092.00
2022-10-28T14:34:36.686Z,99097.38
2022-10-28T14:37:56.695Z,99102.38
2022-10-28T14:41:30.516Z,99089.56
2022-10-28T14:44:37.924Z,99091.91
2022-10-28T14:47:54.828Z,99096.47
2022-10-28T14:50:56.287Z,99099.63
2022-10-28T14:53:58.083Z,99104.09
2022-10-28T14:56:59.413Z,99117.81
2022-10-28T15:00:01.929Z,99105.72
2022-10-28T15:03:03.357Z,99104.97
2022-10-28T15:06:23.171Z,99095.97
2022-10-28T15:09:26.125Z,99103.72
2022-10-28T15:12:28.667Z,99110.34
2022-10-28T15:15:30.986Z,99110.88
2022-10-28T15:18:32.351Z,99105.97
2022-10-28T15:21:33.716Z,99112.66
2022-10-28T15:24:35.120Z,99102.06
2022-10-28T15:27:37.115Z,99102.44
2022-10-28T15:30:43.465Z,99099.47
2022-10-28T15:33:47.279Z,99102.28
2022-10-28T15:36:48.708Z,99098.50
2022-10-28T15:39:52.333Z,99094.03
2022-10-28T15:42:55.674Z,99103.16
2022-10-28T15:46:09.964Z,99099.22
2022-10-28T15:49:19.750Z,99099.59
2022-10-28T15:52:22.036Z,99102.81
2022-10-28T15:55:35.649Z,99100.72
2022-10-28T15:59:01.316Z,99103.13
2022-10-28T16:02:02.780Z,99102.88
2022-10-28T16:05:04.362Z,99118.22
2022-10-28T16:08:18.183Z,99122.34
2022-10-28T16:11:20.111Z,99128.09
2022-10-28T16:14:24.562Z,99118.00
2022-10-28T16:17:29.385Z,99124.50
2022-10-28T16:20:30.823Z,99127.78
2022-10-28T16:23:37.066Z,99121.16
2022-10-28T16:26:38.531Z,99119.69
2022-10-28T16:29:39.894Z,99116.44
2022-10-28T16:32:41.842Z,99109.72
2022-10-28T16:35:43.195Z,99121.34
2022-10-28T16:38:44.565Z,99119.81
2022-10-28T16:41:45.891Z,99125.25
2022-10-28T16:44:47.253Z,99120.19
2022-10-28T16:47:48.604Z,99130.84
2022-10-28T16:50:54.183Z,99132.63
2022-10-28T16:53:55.560Z,99138.22
2022-10-28T16:56:58.066Z,99142.81
2022-10-28T16:59:59.443Z,99149.91
2022-10-28T17:03:00.859Z,99149.25
2022-10-28T17:06:02.231Z,99149.38
2022-10-28T17:09:04.137Z,99157.44
2022-10-28T17:12:05.597Z,99148.81
2022-10-28T17:15:07.169Z,99147.28
2022-10-28T17:18:11.698Z,99149.22
2022-10-28T17:21:13.057Z,99152.84
2022-10-28T17:24:14.425Z,99148.59
2022-10-28T17:27:15.834Z,99150.47
2022-10-28T17:30:17.555Z,99148.72
2022-10-28T17:33:19.048Z,99147.13
2022-10-28T17:36:20.416Z,99145.41
2022-10-28T17:39:25.852Z,99136.69
2022-10-28T17:42:28.054Z,99137.66
2022-10-28T17:45:29.400Z,99144.66
2022-10-28T17:48:30.745Z,99136.00
2022-10-28T17:51:32.111Z,99135.91
2022-10-28T17:54:33.518Z,99142.09
2022-10-28T17:57:34.949Z,99146.56
2022-10-28T18:00:36.326Z,99148.38
2022-10-28T18:03:38.902Z,99153.66
2022-10-28T18:06:40.600Z,99153.72
2022-10-28T18:09:42.187Z,99158.16
2022-10-28T18:12:43.553Z,99157.34
2022-10-28T18:15:44.898Z,99157.31
2022-10-28T18:18:46.290Z,99153.88
2022-10-28T18:21:47.703Z,99159.16
2022-10-28T18:24:49.698Z,99161.84
2022-10-28T18:27:51.015Z,99162.81
2022-10-28T18:30:52.364Z,99160.19
2022-10-28T18:33:53.679Z,99160.28
2022-10-28T18:36:55.050Z,99155.16
2022-10-28T18:39:56.380Z,99156.13
2022-10-28T18:42:57.749Z,99163.22
2022-10-28T18:46:02.322Z,99162.38
2022-10-28T18:49:05.171Z,99144.00
2022-10-28T18:52:06.528Z,99144.03
2022-10-28T18:55:08.348Z,99138.03
2022-10-28T18:58:11.686Z,99132.81
2022-10-28T19:01:14.126Z,99120.59
2022-10-28T19:04:15.632Z,99118.03
2022-10-28T19:07:17.014Z,99118.00
2022-10-28T19:10:18.469Z,99114.56
2022-10-28T19:13:19.781Z,99129.47
2022-10-28T19:16:21.404Z,99132.09
2022-10-28T19:19:22.729Z,99134.78
2022-10-28T19:22:24.120Z,99131.28
2022-10-28T19:25:25.534Z,99131.38
2022-10-28T19:28:26.880Z,99134.91
2022-10-28T19:31:28.428Z,99135.81
2022-10-28T19:34:30.178Z,99132.41
2022-10-28T19:37:31.505Z,99140.28
2022-10-28T19:40:32.881Z,99135.00
2022-10-28T19:43:34.458Z,99129.78
2022-10-28T19:46:35.904Z,99130.72
2022-10-28T19:49:40.654Z,99127.22
2022-10-28T19:52:44.904Z,99121.97
2022-10-28T19:55:46.231Z,99128.19
2022-10-28T19:58:53.208Z,99127.31
2022-10-28T20:01:54.647Z,99124.72
2022-10-28T20:04:57.284Z,99120.41
2022-10-28T20:07:59.315Z,99109.94
2022-10-28T20:11:01.334Z,99110.81
2022-10-28T20:14:04.269Z,99115.25
2022-10-28T20:17:07.089Z,99113.53
2022-10-28T20:20:08.644Z,99107.41
2022-10-28T20:23:10.008Z,99104.81
2022-10-28T20:26:11.790Z,99112.72
2022-10-28T20:29:13.159Z,99110.97
2022-10-28T20:32:15.797Z,99118.00
2022-10-28T20:35:19.023Z,99110.13
2022-10-28T20:38:20.403Z,99103.16
2022-10-28T20:41:22.119Z,99118.03
2022-10-28T20:44:23.497Z,99120.75
2022-10-28T20:47:24.806Z,99118.13
2022-10-28T20:50:26.175Z,99113.78
2022-10-28T20:53:28.166Z,99123.44
2022-10-28T20:56:30.190Z,99125.16
2022-10-28T20:59:31.597Z,99119.88
2022-10-28T21:02:33.158Z,99108.53
2022-10-28T21:05:34.642Z,99115.56
2022-10-28T21:08:36.036Z,99108.59
2022-10-28T21:11:37.371Z,99102.50
2022-10-28T21:14:38.816Z,99102.50
2022-10-28T21:17:40.251Z,99102.53
2022-10-28T21:20:41.680Z,99102.53
2022-10-28T21:23:43.020Z,99106.84
2022-10-28T21:26:47.155Z,99105.13
2022-10-28T21:29:51.375Z,99107.72
2022-10-28T21:32:54.815Z,99104.25
2022-10-28T21:35:57.118Z,99102.53
2022-10-28T21:38:58.439Z,99106.06
2022-10-28T21:41:59.804Z,99108.69
2022-10-28T21:45:01.131Z,99102.56
2022-10-28T21:48:02.439Z,99108.69
2022-10-28T21:51:07.234Z,99100.88
2022-10-28T21:54:11.353Z,99095.63
2022-10-28T21:57:12.707Z,99094.78
2022-10-28T22:00:14.111Z,99101.78
2022-10-28T22:03:15.514Z,99106.16
2022-10-28T22:06:16.883Z,99099.19
2022-10-28T22:09:18.260Z,99093.91
2022-10-28T22:12:19.664Z,99093.06
2022-10-28T22:15:21.363Z,99107.03
2022-10-28T22:18:22.675Z,99100.94
2022-10-28T22:21:25.517Z,99102.72
2022-10-28T22:24:26.934Z,99097.47
2022-10-28T22:27:28.307Z,99094.84
2022-10-28T22:30:29.697Z,99091.38
2022-10-28T22:33:32.941Z,99092.25
2022-10-28T22:36:34.692Z,99090.50
2022-10-28T22:39:36.040Z,99087.03
2022-10-28T22:42:37.631Z,99087.03
2022-10-28T22:45:38.970Z,99076.56
2022-10-28T22:48:40.391Z,99078.28
2022-10-28T22:51:41.806Z,99085.28
2022-10-28T22:54:43.173Z,99085.28
2022-10-28T22:57:45.267Z,99091.41
2022-10-28T23:00:46.603Z,99077.47
2022-10-28T23:03:48.467Z,99073.97
2022-10-28T23:06:49.809Z,99068.75
2022-10-28T23:09:51.419Z,99083.56
2022-10-28T23:12:57.058Z,99073.09
2022-10-28T23:16:11.577Z,99065.28
2022-10-28T23:19:12.943Z,99069.63
2022-10-28T23:22:14.406Z,99070.50
2022-10-28T23:25:15.854Z,99059.16
2022-10-28T23:28:17.204Z,99061.78
2022-10-28T23:31:18.633Z,99065.28
2022-10-28T23:34:20.034Z,99062.66
2022-10-28T23:37:21.353Z,99061.78
2022-10-28T23:40:22.722Z,99068.78
2022-10-28T23:43:24.065Z,99068.78
2022-10-28T23:46:25.466Z,99061.78
2022-10-28T23:49:26.814Z,99062.66
2022-10-28T23:52:28.150Z,99060.03
2022-10-28T23:55:29.572Z,99060.06
2022-10-28T23:58:30.919Z,99060.03
